Decoded Metar for FMCZ (DZAOUDZI in MAYOTTE ISLAND) (IATA:DZA) | Meteo·Mobile Aviation Weather
aviador You're here:

FMCZ Decoded Metar

DZAOUDZI in MAYOTTE ISLAND
Report Time2019-03-23 09:00:00
UTC Time2019-03-23 09:12:46
Flight Rules mvfr MVFR
Wind190° at 07 kt
W.Decomp.*RWY 16: 5.5 kt HW 4.3 kt RCW
W.Rank190° ranks 5
Current wind is below 190° avg. (9.2)
Visibility9999 m
Phenomena:Shower Rain
Clouds:Few CB 015 Hf
Few 033 Hf
Expected CloudBase > 2,800 ft AGL from Temp-Dew spread
Ceiling1,800 ft
Temp32°C (ISA +17)
Dew Point25°C (67% RH)
Heat Index39.3°C
QNH1010 hPa
Density Alt2,484 ft
Elevation23 ft
Report Wrong Elevation
Raw Report
FMCZ 230900Z AUTO 19007KT 9999 FEW033 32/25 Q1010 TEMPO 4000 SHRA
FEW015CB BKN018TCU=

Extra information for FMCZ:More info

Metar Taf Metar & Taf Last 4 Metars F.Rules Stats Wind Profile Meteogram Temp Stats Airport Information Weather charts Add Link Nearby VenuesMetar ALERT Operation Metar Decoded Social comments